Time;durP1;ratioP1;P1;durP2;ratioP2;P2;SDS_P1;SDS_P2;PMS_P1;PMS_P2;Temp;Humidity;BMP_temperature;BMP_pressure;BME280_temperature;BME280_humidity;BME280_pressure;Samples;Min_cycle;Max_cycle;Signal;HPM_P1;HPM_P2
2023/07/08 00:00:52;;;;;;;14.50;10.80;;;15.30;80.30;;;;;;5053325;28;20719;-88
2023/07/08 00:03:18;;;;;;;11.88;10.57;;;15.40;80.40;;;;;;5052029;28;20219;-88
2023/07/08 00:05:45;;;;;;;13.60;11.82;;;15.40;80.40;;;;;;5052451;28;20286;-88
2023/07/08 00:08:16;;;;;;;12.63;11.43;;;15.30;80.40;;;;;;5052071;28;20176;-86
2023/07/08 00:10:41;;;;;;;17.20;12.23;;;15.30;80.50;;;;;;5052046;28;20183;-89
2023/07/08 00:13:09;;;;;;;13.35;11.23;;;15.20;80.60;;;;;;5053209;28;20595;-89
2023/07/08 00:15:36;;;;;;;12.90;11.70;;;15.20;80.40;;;;;;5051764;28;20270;-89
2023/07/08 00:18:08;;;;;;;14.40;11.73;;;15.10;80.30;;;;;;5051978;28;20180;-89
2023/07/08 00:20:44;;;;;;;13.10;11.82;;;15.00;80.40;;;;;;5052502;28;20247;-88
2023/07/08 00:23:10;;;;;;;12.97;11.67;;;15.00;80.90;;;;;;5051788;28;20706;-88
2023/07/08 00:25:35;;;;;;;12.57;11.27;;;14.90;81.20;;;;;;5051824;28;20180;-89
2023/07/08 00:28:01;;;;;;;13.10;11.43;;;14.80;81.30;;;;;;5051782;28;20203;-89
2023/07/08 00:30:31;;;;;;;12.50;11.17;;;14.80;81.50;;;;;;5051823;28;20241;-89
2023/07/08 00:32:58;;;;;;;12.53;9.90;;;14.80;81.50;;;;;;5051762;28;20199;-88
2023/07/08 00:35:33;;;;;;;18.60;10.67;;;14.70;81.60;;;;;;5051755;28;20175;-89
2023/07/08 00:38:02;;;;;;;11.00;9.97;;;14.60;81.90;;;;;;5051642;28;20651;-89
2023/07/08 00:40:32;;;;;;;10.80;9.77;;;14.60;82.10;;;;;;5052935;28;20203;-89
2023/07/08 00:43:02;;;;;;;10.30;9.37;;;14.60;82.10;;;;;;5051487;28;20192;-89
2023/07/08 00:45:49;;;;;;;11.07;9.80;;;14.50;82.10;;;;;;5051951;28;20588;-89
2023/07/08 00:48:25;;;;;;;11.47;10.33;;;14.60;82.10;;;;;;5052787;28;20180;-86
2023/07/08 00:50:51;;;;;;;15.20;10.17;;;14.50;81.90;;;;;;5051682;28;20172;-86
2023/07/08 00:53:24;;;;;;;11.63;10.63;;;14.50;81.70;;;;;;5051539;28;20678;-86
2023/07/08 00:55:52;;;;;;;13.57;10.70;;;14.50;81.40;;;;;;5051831;28;20183;-86
2023/07/08 00:58:21;;;;;;;12.57;11.57;;;14.50;81.20;;;;;;5051628;28;20204;-88
2023/07/08 01:00:46;;;;;;;12.00;10.80;;;14.40;81.10;;;;;;5051698;28;20202;-89
2023/07/08 01:03:12;;;;;;;15.30;11.47;;;14.40;81.10;;;;;;5052580;28;20743;-89
2023/07/08 01:05:38;;;;;;;11.80;10.73;;;14.30;81.20;;;;;;5052425;28;20230;-89
2023/07/08 01:08:06;;;;;;;11.63;10.57;;;14.20;81.30;;;;;;5055342;28;20683;-88
2023/07/08 01:10:37;;;;;;;12.77;11.43;;;14.20;81.50;;;;;;5055305;28;20176;-89
2023/07/08 01:13:08;;;;;;;11.60;10.60;;;14.10;81.40;;;;;;5055139;28;20613;-88
2023/07/08 01:15:40;;;;;;;13.20;11.80;;;14.10;81.30;;;;;;5056689;28;20153;-89
2023/07/08 01:18:08;;;;;;;16.77;11.57;;;14.10;81.30;;;;;;5055117;28;20279;-89
2023/07/08 01:20:33;;;;;;;11.77;10.73;;;14.00;81.30;;;;;;5055067;28;20673;-86
2023/07/08 01:22:59;;;;;;;12.43;11.23;;;14.00;81.30;;;;;;5056461;28;20192;-86
2023/07/08 01:25:25;;;;;;;16.37;11.10;;;14.00;81.20;;;;;;5056204;28;20647;-86
2023/07/08 01:27:55;;;;;;;12.17;11.10;;;14.00;81.10;;;;;;5054935;28;20333;-86
2023/07/08 01:30:21;;;;;;;11.70;10.80;;;13.90;80.90;;;;;;5056623;28;20227;-86
2023/07/08 01:32:57;;;;;;;12.17;10.97;;;13.90;80.90;;;;;;5054782;28;20226;-86
2023/07/08 01:35:22;;;;;;;13.27;11.50;;;13.90;80.70;;;;;;5056062;28;20259;-88
2023/07/08 01:37:53;;;;;;;12.63;11.53;;;13.90;80.70;;;;;;5054831;28;20269;-86
2023/07/08 01:40:19;;;;;;;16.50;12.30;;;13.80;80.60;;;;;;5055442;28;20183;-89
2023/07/08 01:42:45;;;;;;;12.40;11.20;;;13.80;80.90;;;;;;5054595;28;20580;-88
2023/07/08 01:45:17;;;;;;;13.37;12.27;;;13.80;80.90;;;;;;5055824;28;20172;-88
2023/07/08 01:47:53;;;;;;;12.03;11.13;;;13.70;80.90;;;;;;5054421;28;20199;-89
2023/07/08 01:50:20;;;;;;;15.97;12.90;;;13.70;81.10;;;;;;5056080;28;20176;-88
2023/07/08 01:52:48;;;;;;;15.07;13.70;;;13.70;81.40;;;;;;5055652;28;20671;-89
2023/07/08 01:55:13;;;;;;;18.67;13.77;;;13.80;82.20;;;;;;5054762;28;20191;-88
2023/07/08 01:57:39;;;;;;;16.43;14.13;;;13.70;82.80;;;;;;5054635;28;20192;-88
2023/07/08 02:00:06;;;;;;;15.03;13.47;;;13.60;83.20;;;;;;5054609;28;20187;-89
2023/07/08 02:02:31;;;;;;;25.37;23.40;;;13.60;83.70;;;;;;5054684;28;20191;-88
2023/07/08 02:04:57;;;;;;;27.00;25.00;;;13.50;84.10;;;;;;5055748;28;20180;-88
2023/07/08 02:07:22;;;;;;;29.47;26.83;;;13.40;84.40;;;;;;5054145;28;20199;-88
2023/07/08 02:09:48;;;;;;;28.97;26.43;;;13.30;84.60;;;;;;5054201;28;20183;-88
2023/07/08 02:12:13;;;;;;;21.27;19.37;;;13.30;84.70;;;;;;5054114;28;20663;-88
2023/07/08 02:14:39;;;;;;;21.60;19.67;;;13.20;85.00;;;;;;5054325;28;20278;-88
2023/07/08 02:17:05;;;;;;;19.57;17.83;;;13.20;85.30;;;;;;5053147;28;20179;-88
2023/07/08 02:19:31;;;;;;;18.60;16.63;;;13.20;85.40;;;;;;5053943;28;20172;-88
2023/07/08 02:21:57;;;;;;;20.37;18.40;;;13.30;85.40;;;;;;5054343;28;20233;-88
2023/07/08 02:24:23;;;;;;;20.27;17.47;;;13.30;85.20;;;;;;5054971;28;20275;-88
2023/07/08 02:26:48;;;;;;;26.30;23.90;;;13.20;85.20;;;;;;5054068;28;20341;-88
2023/07/08 02:29:14;;;;;;;24.67;22.57;;;13.20;85.40;;;;;;5055076;28;20221;-88
2023/07/08 02:31:40;;;;;;;26.87;24.43;;;13.20;85.30;;;;;;5055209;28;20647;-88
2023/07/08 02:34:05;;;;;;;15.60;12.17;;;13.20;85.40;;;;;;5053646;28;20279;-88
2023/07/08 02:36:31;;;;;;;13.43;12.00;;;13.20;85.70;;;;;;5054478;28;20184;-88
2023/07/08 02:38:56;;;;;;;13.50;12.10;;;13.30;85.60;;;;;;5053560;28;20184;-88
2023/07/08 02:41:22;;;;;;;15.93;10.93;;;13.30;85.60;;;;;;5053569;28;20275;-88
2023/07/08 02:43:47;;;;;;;14.07;12.83;;;13.30;85.60;;;;;;5053474;28;20713;-88
2023/07/08 02:46:13;;;;;;;17.57;13.27;;;13.30;85.50;;;;;;5053340;28;20196;-88
2023/07/08 02:48:38;;;;;;;17.67;13.23;;;13.40;85.40;;;;;;5053534;28;20206;-88
2023/07/08 02:51:05;;;;;;;14.10;12.60;;;13.40;85.30;;;;;;5053498;28;20652;-88
2023/07/08 02:53:31;;;;;;;22.33;12.90;;;13.40;85.20;;;;;;5053315;28;20211;-88
2023/07/08 02:55:57;;;;;;;15.97;12.40;;;13.50;85.00;;;;;;5054231;28;20164;-88
2023/07/08 02:58:23;;;;;;;16.97;12.80;;;13.40;84.90;;;;;;5054457;28;20212;-88
2023/07/08 03:00:59;;;;;;;13.93;12.57;;;13.50;85.00;;;;;;5054404;28;20215;-88
2023/07/08 03:03:24;;;;;;;16.83;13.30;;;13.50;84.70;;;;;;5053151;28;20206;-88
2023/07/08 03:05:55;;;;;;;15.17;13.77;;;13.50;84.60;;;;;;5053152;28;20180;-88
2023/07/08 03:08:20;;;;;;;17.87;13.13;;;13.40;84.60;;;;;;5053060;28;20207;-88
2023/07/08 03:10:48;;;;;;;14.67;12.47;;;13.40;84.70;;;;;;5052999;28;20214;-88
2023/07/08 03:13:14;;;;;;;15.43;13.20;;;13.30;84.70;;;;;;5054077;28;20571;-88
2023/07/08 03:15:40;;;;;;;16.90;13.27;;;13.30;84.90;;;;;;5052921;28;20176;-88
2023/07/08 03:18:07;;;;;;;15.13;13.73;;;13.30;85.00;;;;;;5052955;28;20187;-88
2023/07/08 03:20:33;;;;;;;15.10;13.43;;;13.30;85.10;;;;;;5052777;28;20175;-88
2023/07/08 03:22:58;;;;;;;14.77;13.33;;;13.30;85.20;;;;;;5052676;28;20249;-88
2023/07/08 03:25:24;;;;;;;16.97;12.97;;;13.30;85.10;;;;;;5052758;28;20176;-88
2023/07/08 03:27:50;;;;;;;16.83;14.30;;;13.30;85.00;;;;;;5052751;28;20287;-88
2023/07/08 03:30:15;;;;;;;18.33;13.00;;;13.30;85.00;;;;;;5052639;28;20184;-88
2023/07/08 03:32:41;;;;;;;19.27;12.07;;;13.30;85.10;;;;;;5052743;28;20172;-88
2023/07/08 03:35:08;;;;;;;22.67;13.43;;;13.30;85.10;;;;;;5053718;28;20187;-88
2023/07/08 03:37:33;;;;;;;13.73;12.17;;;13.20;85.30;;;;;;5054002;28;20180;-88
2023/07/08 03:39:59;;;;;;;16.03;13.50;;;13.20;85.60;;;;;;5053593;28;20168;-88
2023/07/08 03:42:24;;;;;;;15.07;12.80;;;13.20;85.70;;;;;;5052413;28;20172;-88
2023/07/08 03:44:50;;;;;;;21.47;13.73;;;13.20;86.10;;;;;;5052354;28;20683;-88
2023/07/08 03:47:15;;;;;;;21.10;14.20;;;13.20;86.10;;;;;;5052278;28;20204;-88
2023/07/08 03:49:41;;;;;;;21.13;14.00;;;13.30;86.10;;;;;;5053506;28;20199;-88
2023/07/08 03:52:14;;;;;;;17.63;14.00;;;13.40;86.00;;;;;;5053421;28;20180;-88
2023/07/08 03:54:40;;;;;;;18.93;14.50;;;13.50;85.90;;;;;;5052024;28;20211;-88
2023/07/08 03:57:06;;;;;;;16.40;14.73;;;13.60;85.90;;;;;;5052248;28;20176;-88
2023/07/08 03:59:32;;;;;;;16.23;14.43;;;13.70;85.90;;;;;;5052192;28;20212;-88
2023/07/08 04:01:58;;;;;;;19.07;14.30;;;13.80;85.90;;;;;;5052300;28;20270;-88
2023/07/08 04:04:24;;;;;;;21.13;13.33;;;13.80;85.80;;;;;;5052079;28;20204;-88
2023/07/08 04:06:50;;;;;;;18.67;14.83;;;13.80;85.80;;;;;;5052461;28;20204;-88
2023/07/08 04:09:16;;;;;;;19.43;13.03;;;13.90;85.80;;;;;;5052000;28;20719;-88
2023/07/08 04:11:41;;;;;;;15.90;13.73;;;13.90;85.70;;;;;;5052024;28;20176;-88
2023/07/08 04:14:09;;;;;;;18.07;14.10;;;14.00;85.70;;;;;;5051827;28;20242;-88
2023/07/08 04:16:45;;;;;;;16.53;13.00;;;14.10;85.70;;;;;;5053131;28;20187;-89
2023/07/08 04:19:14;;;;;;;14.43;12.37;;;14.20;85.80;;;;;;5052330;28;20516;-88
2023/07/08 04:21:40;;;;;;;21.33;12.60;;;14.30;85.70;;;;;;5051807;28;20182;-88
2023/07/08 04:24:05;;;;;;;15.70;12.83;;;14.40;85.60;;;;;;5052115;28;20195;-89
2023/07/08 04:26:35;;;;;;;17.07;11.97;;;14.50;85.50;;;;;;5051766;28;20199;-89
2023/07/08 04:29:01;;;;;;;20.10;12.07;;;14.60;85.20;;;;;;5051785;28;20194;-89
2023/07/08 04:31:27;;;;;;;12.27;10.70;;;14.70;85.10;;;;;;5051827;28;20186;-88
2023/07/08 04:33:52;;;;;;;14.80;11.10;;;14.70;85.00;;;;;;5051682;28;20200;-89
2023/07/08 04:36:21;;;;;;;14.53;11.27;;;14.80;84.60;;;;;;5051722;28;20180;-89
2023/07/08 04:38:47;;;;;;;13.43;11.60;;;14.80;84.40;;;;;;5051760;28;20267;-89
2023/07/08 04:41:12;;;;;;;11.03;9.93;;;15.00;84.20;;;;;;5053729;28;20600;-89
2023/07/08 04:43:38;;;;;;;12.90;11.33;;;15.10;83.80;;;;;;5056968;28;20283;-89
2023/07/08 04:46:08;;;;;;;15.27;11.10;;;15.10;83.60;;;;;;5056860;28;20180;-89
2023/07/08 04:48:34;;;;;;;13.23;10.60;;;15.20;83.40;;;;;;5055779;28;20581;-86
2023/07/08 04:50:59;;;;;;;11.67;9.77;;;15.20;83.30;;;;;;5055681;28;20182;-86
2023/07/08 04:53:25;;;;;;;12.90;10.33;;;15.30;83.40;;;;;;5055728;28;20200;-89
2023/07/08 04:55:54;;;;;;;12.88;10.30;;;15.30;83.40;;;;;;5055556;28;20168;-89
2023/07/08 04:58:19;;;;;;;10.85;9.75;;;15.40;83.80;;;;;;5055428;28;20172;-87
2023/07/08 05:00:45;;;;;;;15.18;10.00;;;15.50;84.20;;;;;;5055614;28;20659;-89
2023/07/08 05:03:10;;;;;;;12.07;9.38;;;15.70;84.60;;;;;;5055366;28;20729;-89
2023/07/08 05:05:36;;;;;;;10.48;9.30;;;15.80;84.50;;;;;;5055488;28;20172;-89
2023/07/08 05:08:01;;;;;;;12.27;9.15;;;16.00;84.50;;;;;;5055369;28;20200;-89
2023/07/08 05:10:27;;;;;;;9.20;8.30;;;16.00;84.40;;;;;;5056552;28;20191;-89
2023/07/08 05:12:52;;;;;;;12.90;9.13;;;16.20;84.20;;;;;;5056507;28;20188;-89
2023/07/08 05:15:18;;;;;;;10.10;8.63;;;16.20;83.90;;;;;;5056730;28;20176;-89
2023/07/08 05:17:44;;;;;;;13.48;9.07;;;16.30;83.40;;;;;;5055196;28;20191;-89
2023/07/08 05:20:12;;;;;;;9.85;8.52;;;16.30;83.20;;;;;;5055171;28;20175;-89
2023/07/08 05:22:38;;;;;;;14.27;8.75;;;16.40;83.20;;;;;;5055005;28;20179;-89
2023/07/08 05:25:05;;;;;;;10.15;7.75;;;16.50;83.10;;;;;;5055322;28;20176;-89
2023/07/08 05:27:33;;;;;;;10.93;8.07;;;16.60;82.80;;;;;;5055724;28;20199;-89
2023/07/08 05:29:58;;;;;;;12.70;7.85;;;16.70;82.70;;;;;;5055283;28;20168;-88
2023/07/08 05:32:25;;;;;;;16.33;8.52;;;16.90;82.50;;;;;;5055135;28;20215;-89
2023/07/08 05:34:50;;;;;;;9.57;8.57;;;17.00;82.10;;;;;;5054831;28;20192;-89
2023/07/08 05:37:18;;;;;;;9.43;8.48;;;17.10;80.70;;;;;;5054945;28;20179;-89
2023/07/08 05:39:44;;;;;;;11.25;8.38;;;17.20;80.30;;;;;;5056339;28;20175;-89
2023/07/08 05:42:09;;;;;;;11.70;8.57;;;17.40;80.00;;;;;;5055225;28;20172;-89
2023/07/08 05:44:35;;;;;;;8.60;7.80;;;17.50;79.50;;;;;;5054749;28;20241;-89
2023/07/08 05:47:00;;;;;;;10.93;8.60;;;17.60;79.50;;;;;;5055628;28;20250;-89
2023/07/08 05:49:26;;;;;;;10.25;9.27;;;17.70;78.50;;;;;;5054603;28;20253;-89
2023/07/08 05:51:51;;;;;;;9.38;8.48;;;17.90;78.40;;;;;;5053551;28;20176;-89
2023/07/08 05:54:17;;;;;;;9.38;8.40;;;18.00;79.10;;;;;;5054110;28;20290;-89
2023/07/08 05:56:42;;;;;;;13.57;9.27;;;18.10;77.50;;;;;;5055670;28;20168;-86
2023/07/08 05:59:08;;;;;;;8.70;7.97;;;18.30;76.60;;;;;;5054460;28;20207;-86
2023/07/08 06:01:33;;;;;;;10.02;8.82;;;18.40;76.90;;;;;;5055524;28;20241;-89
2023/07/08 06:03:59;;;;;;;9.93;8.93;;;18.60;76.40;;;;;;5054320;28;20614;-88
2023/07/08 06:06:26;;;;;;;10.57;9.73;;;18.70;75.40;;;;;;5055656;28;20196;-87
2023/07/08 06:08:51;;;;;;;12.30;10.68;;;18.90;75.40;;;;;;5055491;28;20183;-86
2023/07/08 06:11:17;;;;;;;11.50;10.38;;;19.00;74.30;;;;;;5055436;28;20176;-89
2023/07/08 06:13:43;;;;;;;13.90;10.50;;;19.10;73.30;;;;;;5054058;28;20279;-89
2023/07/08 06:16:08;;;;;;;11.35;10.30;;;19.20;73.90;;;;;;5054331;28;20639;-89
2023/07/08 06:18:34;;;;;;;12.02;10.55;;;19.30;73.00;;;;;;5054160;28;20251;-89
2023/07/08 06:21:00;;;;;;;10.65;9.65;;;19.50;72.70;;;;;;5054242;28;20184;-89
2023/07/08 06:23:25;;;;;;;12.70;11.63;;;19.60;72.30;;;;;;5053854;28;20568;-89
2023/07/08 06:25:52;;;;;;;12.70;11.70;;;19.60;69.60;;;;;;5053975;28;20183;-89
2023/07/08 06:28:17;;;;;;;11.80;10.60;;;19.70;70.40;;;;;;5055119;28;20196;-89
2023/07/08 06:30:43;;;;;;;10.38;9.57;;;19.80;70.80;;;;;;5053697;28;20206;-86
2023/07/08 06:33:11;;;;;;;10.82;9.82;;;20.00;71.90;;;;;;5055001;28;20198;-87
2023/07/08 06:35:37;;;;;;;11.35;10.02;;;20.20;70.60;;;;;;5054992;28;20217;-88
2023/07/08 06:38:03;;;;;;;13.00;11.75;;;20.30;70.70;;;;;;5053672;28;20180;-88
2023/07/08 06:40:28;;;;;;;13.07;11.88;;;20.30;69.10;;;;;;5053668;28;20203;-88
2023/07/08 06:42:54;;;;;;;12.55;11.52;;;20.40;68.80;;;;;;5053633;28;20191;-89
2023/07/08 06:45:19;;;;;;;14.15;13.05;;;20.60;68.30;;;;;;5054740;28;20661;-88
2023/07/08 06:47:46;;;;;;;14.13;13.00;;;20.60;66.50;;;;;;5053505;28;20714;-89
2023/07/08 06:50:11;;;;;;;13.10;12.10;;;20.60;66.50;;;;;;5053486;28;20259;-89
2023/07/08 06:52:37;;;;;;;13.73;12.52;;;20.80;66.80;;;;;;5054524;28;20210;-89
2023/07/08 06:55:06;;;;;;;13.85;12.75;;;20.80;66.90;;;;;;5054460;28;20184;-89
2023/07/08 06:57:32;;;;;;;15.18;13.98;;;20.90;65.80;;;;;;5053355;28;20275;-89
2023/07/08 06:59:58;;;;;;;15.93;14.52;;;20.90;65.00;;;;;;5053294;28;20191;-88
2023/07/08 07:02:24;;;;;;;15.88;14.55;;;20.90;64.20;;;;;;5053249;28;20182;-88
2023/07/08 07:04:49;;;;;;;15.80;14.57;;;21.00;64.00;;;;;;5052877;28;20199;-88
2023/07/08 07:07:15;;;;;;;13.82;12.82;;;21.00;64.30;;;;;;5053112;28;20250;-89
2023/07/08 07:09:40;;;;;;;16.17;14.57;;;21.20;64.90;;;;;;5053093;28;20176;-89
2023/07/08 07:12:07;;;;;;;15.20;14.00;;;21.20;64.30;;;;;;5054564;28;20207;-89
2023/07/08 07:14:33;;;;;;;15.50;14.05;;;21.30;64.60;;;;;;5052974;28;20188;-89
2023/07/08 07:16:59;;;;;;;15.48;14.18;;;21.50;64.20;;;;;;5054366;28;20173;-89
2023/07/08 07:19:24;;;;;;;15.60;14.40;;;21.50;63.60;;;;;;5054180;28;20187;-89
2023/07/08 07:21:51;;;;;;;15.63;14.30;;;21.70;63.30;;;;;;5052755;28;20182;-89
2023/07/08 07:24:17;;;;;;;15.38;14.23;;;21.70;63.40;;;;;;5053011;28;20226;-89
2023/07/08 07:26:42;;;;;;;15.48;14.27;;;21.70;63.40;;;;;;5052976;28;20204;-89
2023/07/08 07:29:08;;;;;;;16.67;15.15;;;21.80;64.10;;;;;;5053776;28;20174;-88
2023/07/08 07:31:33;;;;;;;16.20;14.90;;;21.80;63.30;;;;;;5053454;28;20168;-90
2023/07/08 07:34:00;;;;;;;16.52;15.05;;;22.00;63.70;;;;;;5053524;28;20204;-90
2023/07/08 07:36:27;;;;;;;16.10;14.75;;;22.10;63.80;;;;;;5053895;28;20183;-91
2023/07/08 07:38:52;;;;;;;17.00;15.63;;;22.20;63.70;;;;;;5054414;28;20174;-90
2023/07/08 07:41:18;;;;;;;17.27;15.98;;;22.30;62.60;;;;;;5052440;28;20255;-90
2023/07/08 07:43:43;;;;;;;17.08;15.52;;;22.30;61.60;;;;;;5052716;28;20284;-90
2023/07/08 07:46:10;;;;;;;16.83;15.43;;;22.40;62.70;;;;;;5053774;28;20180;-90
2023/07/08 07:48:36;;;;;;;17.75;16.35;;;22.50;62.00;;;;;;5052380;28;20172;-89
2023/07/08 07:51:02;;;;;;;17.50;16.00;;;22.70;62.40;;;;;;5052742;28;20538;-89
2023/07/08 07:53:27;;;;;;;16.63;15.43;;;22.70;61.80;;;;;;5052217;28;20215;-89
2023/07/08 07:55:58;;;;;;;16.67;15.40;;;22.80;61.90;;;;;;5052285;28;20156;-89
2023/07/08 07:58:23;;;;;;;17.60;16.15;;;22.90;60.90;;;;;;5052049;28;20180;-89
2023/07/08 08:00:49;;;;;;;16.70;15.50;;;23.00;61.90;;;;;;5052592;28;20194;-90
2023/07/08 08:03:16;;;;;;;17.20;15.98;;;23.20;61.60;;;;;;5053699;28;20192;-89
2023/07/08 08:05:42;;;;;;;16.85;15.32;;;23.20;61.40;;;;;;5052111;28;20180;-89
2023/07/08 08:08:08;;;;;;;17.00;15.48;;;23.30;59.50;;;;;;5052173;28;20236;-89
2023/07/08 08:10:35;;;;;;;16.52;15.18;;;23.30;58.50;;;;;;5052223;28;20179;-90
2023/07/08 08:13:02;;;;;;;15.93;14.82;;;23.40;59.30;;;;;;5052389;28;20195;-89
2023/07/08 08:15:28;;;;;;;15.38;14.20;;;23.50;59.10;;;;;;5052493;28;20636;-90
2023/07/08 08:17:54;;;;;;;16.00;14.73;;;23.60;58.70;;;;;;5052278;28;20187;-89
2023/07/08 08:20:22;;;;;;;16.65;15.30;;;23.70;57.90;;;;;;5051977;28;20183;-89
2023/07/08 08:22:47;;;;;;;15.80;14.50;;;23.70;57.50;;;;;;5051844;28;20176;-89
2023/07/08 08:25:14;;;;;;;16.15;14.70;;;23.80;58.10;;;;;;5052136;28;20546;-89
2023/07/08 08:27:40;;;;;;;14.63;13.60;;;24.00;58.40;;;;;;5053119;28;20695;-89
2023/07/08 08:30:06;;;;;;;15.32;14.23;;;24.10;56.80;;;;;;5051912;28;20184;-89
2023/07/08 08:32:32;;;;;;;15.57;14.35;;;24.20;55.40;;;;;;5051746;28;20267;-89
2023/07/08 08:34:58;;;;;;;15.52;14.43;;;24.30;58.40;;;;;;5052535;28;20207;-89
2023/07/08 08:37:23;;;;;;;15.80;14.55;;;24.40;56.10;;;;;;5051769;28;20680;-89
2023/07/08 08:39:49;;;;;;;15.63;14.43;;;24.40;56.70;;;;;;5051717;28;20191;-89
2023/07/08 08:42:22;;;;;;;15.60;14.43;;;24.50;56.40;;;;;;5051780;28;20196;-89
2023/07/08 08:44:48;;;;;;;15.20;14.20;;;24.70;58.00;;;;;;5052900;28;20196;-89
2023/07/08 08:47:29;;;;;;;16.10;14.90;;;24.80;55.60;;;;;;5051629;28;20206;-89
2023/07/08 08:50:03;;;;;;;15.73;14.43;;;24.90;55.40;;;;;;5052226;28;20156;-89
2023/07/08 08:52:28;;;;;;;16.55;15.13;;;25.00;57.40;;;;;;5052539;28;20171;-89
2023/07/08 08:54:54;;;;;;;16.15;14.75;;;25.10;54.40;;;;;;5051854;28;20306;-89
2023/07/08 08:57:41;;;;;;;16.27;15.07;;;25.20;55.60;;;;;;5051601;28;20226;-89
2023/07/08 09:00:11;;;;;;;16.10;14.80;;;25.30;54.60;;;;;;5052696;28;20160;-89
2023/07/08 09:02:50;;;;;;;16.65;15.32;;;25.40;54.60;;;;;;5036010;28;20188;-89
2023/07/08 09:05:16;;;;;;;15.55;14.35;;;25.40;54.40;;;;;;5052240;28;20175;-88
2023/07/08 09:08:10;;;;;;;16.15;14.77;;;25.50;52.10;;;;;;5052835;28;20199;-88
2023/07/08 09:10:46;;;;;;;15.93;14.82;;;25.50;53.70;;;;;;5051517;28;20670;-89
2023/07/08 09:13:21;;;;;;;15.63;14.52;;;25.50;53.20;;;;;;5051629;28;20192;-89
2023/07/08 09:15:48;;;;;;;15.38;14.07;;;25.70;54.10;;;;;;5051515;28;20164;-88
2023/07/08 09:18:22;;;;;;;15.50;14.40;;;25.60;52.20;;;;;;5052662;28;20715;-89
2023/07/08 09:20:47;;;;;;;15.95;14.85;;;25.70;52.60;;;;;;5051521;28;20181;-88
2023/07/08 09:23:24;;;;;;;16.45;15.20;;;25.70;53.30;;;;;;5051602;28;20199;-89
2023/07/08 09:25:57;;;;;;;16.13;14.85;;;25.80;52.40;;;;;;5051418;28;20230;-89
2023/07/08 09:28:35;;;;;;;16.77;15.48;;;25.90;52.10;;;;;;5054866;28;20200;-89
2023/07/08 09:31:02;;;;;;;16.50;15.30;;;26.10;53.20;;;;;;5055071;28;20172;-89
2023/07/08 09:33:27;;;;;;;16.70;15.50;;;26.20;52.00;;;;;;5054927;28;20290;-89
2023/07/08 09:35:53;;;;;;;16.23;15.13;;;26.20;52.60;;;;;;5054969;28;20210;-88
2023/07/08 09:38:22;;;;;;;16.00;14.90;;;26.20;50.50;;;;;;5056369;28;20656;-88
2023/07/08 09:40:56;;;;;;;15.80;14.25;;;26.20;53.10;;;;;;5055091;28;20257;-88
2023/07/08 09:43:27;;;;;;;16.40;15.05;;;26.20;51.80;;;;;;5055974;28;20195;-88
2023/07/08 09:45:58;;;;;;;15.35;14.18;;;26.20;50.30;;;;;;5054651;28;20180;-90
2023/07/08 09:48:29;;;;;;;15.85;14.50;;;26.30;52.90;;;;;;5054618;28;20633;-87
2023/07/08 09:50:57;;;;;;;15.52;14.32;;;26.50;52.50;;;;;;5054624;28;20163;-88
2023/07/08 09:53:23;;;;;;;15.57;14.23;;;26.50;49.20;;;;;;5054296;28;20203;-87
2023/07/08 09:55:50;;;;;;;16.20;15.00;;;26.60;50.30;;;;;;5056033;28;20632;-87
2023/07/08 09:58:24;;;;;;;16.30;14.90;;;26.60;51.10;;;;;;5055260;28;20183;-87
2023/07/08 10:01:05;;;;;;;15.98;14.90;;;26.80;50.00;;;;;;5054956;28;20176;-87
2023/07/08 10:03:34;;;;;;;15.18;14.07;;;26.80;50.50;;;;;;5054215;28;20203;-88
2023/07/08 10:06:04;;;;;;;16.05;14.88;;;26.80;51.00;;;;;;5053398;28;20442;-88
2023/07/08 10:08:41;;;;;;;15.77;14.52;;;26.70;48.70;;;;;;5055326;28;20555;-86
2023/07/08 10:11:27;;;;;;;16.42;14.90;;;27.00;50.00;;;;;;5055630;28;20160;-85
2023/07/08 10:13:55;;;;;;;15.35;14.25;;;27.20;50.40;;;;;;5054007;28;20192;-87
2023/07/08 10:16:27;;;;;;;16.73;15.10;;;27.20;49.10;;;;;;5054088;28;20214;-88
2023/07/08 10:18:53;;;;;;;15.88;14.68;;;27.20;49.20;;;;;;5055318;28;20669;-87
2023/07/08 10:21:28;;;;;;;15.65;14.48;;;27.20;47.60;;;;;;5055262;28;20180;-87
2023/07/08 10:24:42;;;;;;;17.35;15.27;;;27.20;47.20;;;;;;5055263;28;20728;-87
2023/07/08 10:27:21;;;;;;;15.65;14.65;;;27.40;49.40;;;;;;5038593;28;20204;-87
2023/07/08 10:30:06;;;;;;;16.20;14.98;;;27.60;50.50;;;;;;5055306;28;20164;-84
2023/07/08 10:32:52;;;;;;;16.17;15.05;;;27.60;48.40;;;;;;5055368;28;20187;-87
2023/07/08 10:35:34;;;;;;;16.13;14.95;;;27.60;46.70;;;;;;5053978;28;20172;-87
2023/07/08 10:38:26;;;;;;;14.80;13.45;;;27.70;48.80;;;;;;5054360;28;20156;-87
2023/07/08 10:40:51;;;;;;;15.73;14.52;;;27.60;45.90;;;;;;5053824;28;20631;-87
2023/07/08 10:43:54;;;;;;;15.20;14.25;;;27.70;45.60;;;;;;5053609;28;20206;-87
2023/07/08 10:46:51;;;;;;;15.90;14.80;;;27.80;48.00;;;;;;5053387;28;20175;-87
2023/07/08 10:49:38;;;;;;;15.63;14.63;;;27.80;47.90;;;;;;5053319;28;20525;-87
2023/07/08 10:52:16;;;;;;;16.58;15.35;;;27.80;48.20;;;;;;5055186;28;20160;-88
2023/07/08 10:54:49;;;;;;;17.23;16.02;;;28.00;48.90;;;;;;5053267;28;20645;-88
2023/07/08 10:57:56;;;;;;;17.17;15.93;;;27.90;48.80;;;;;;5053403;28;20179;-88
2023/07/08 11:00:40;;;;;;;16.95;15.77;;;28.00;47.30;;;;;;5054621;28;20168;-88
2023/07/08 11:03:28;;;;;;;16.92;15.75;;;28.20;46.60;;;;;;5054826;28;20192;-87
2023/07/08 11:06:01;;;;;;;17.35;15.80;;;28.10;44.40;;;;;;5054347;28;20172;-87
2023/07/08 11:08:42;;;;;;;16.80;15.50;;;28.00;45.70;;;;;;5054494;28;20195;-87
2023/07/08 11:11:42;;;;;;;16.58;15.38;;;28.20;46.90;;;;;;5054209;28;20163;-87
2023/07/08 11:14:30;;;;;;;17.27;15.88;;;28.30;47.00;;;;;;5054049;28;20204;-87
2023/07/08 11:17:30;;;;;;;17.15;15.90;;;28.50;46.80;;;;;;5053079;28;20178;-88
2023/07/08 11:20:20;;;;;;;16.70;15.60;;;28.40;46.40;;;;;;5052876;28;20176;-88
2023/07/08 11:23:04;;;;;;;16.83;15.68;;;28.40;46.60;;;;;;5054405;28;20167;-88
2023/07/08 11:25:31;;;;;;;17.77;16.35;;;28.40;44.40;;;;;;5054202;28;20172;-87
2023/07/08 11:28:02;;;;;;;17.02;15.65;;;28.50;47.30;;;;;;5052735;28;20192;-87
2023/07/08 11:30:30;;;;;;;17.25;15.95;;;28.70;45.30;;;;;;5052907;28;20164;-88
2023/07/08 11:33:09;;;;;;;16.77;15.68;;;28.70;44.80;;;;;;5053995;28;20242;-87
2023/07/08 11:35:38;;;;;;;17.40;15.80;;;28.70;46.60;;;;;;5053949;28;20509;-87
2023/07/08 11:38:04;;;;;;;17.13;15.77;;;28.90;43.40;;;;;;5052688;28;20667;-87
2023/07/08 11:40:30;;;;;;;17.85;16.38;;;28.90;44.30;;;;;;5053943;28;20180;-87
2023/07/08 11:43:07;;;;;;;18.08;16.85;;;28.90;43.30;;;;;;5052350;28;20545;-87
2023/07/08 11:45:37;;;;;;;22.70;20.83;;;29.00;47.30;;;;;;5052280;28;20233;-86
2023/07/08 11:48:18;;;;;;;24.05;22.23;;;29.00;43.60;;;;;;5052029;28;20674;-86
2023/07/08 11:50:49;;;;;;;23.90;21.92;;;29.00;45.00;;;;;;5051414;28;20175;-86
2023/07/08 11:53:33;;;;;;;22.83;21.25;;;29.10;43.90;;;;;;5052781;28;20245;-87
2023/07/08 11:56:20;;;;;;;23.02;21.52;;;29.20;42.20;;;;;;5052122;28;20179;-87
2023/07/08 11:59:07;;;;;;;23.10;21.60;;;29.40;43.50;;;;;;5053210;28;20168;-86
2023/07/08 12:01:40;;;;;;;23.13;21.63;;;29.60;43.30;;;;;;5053305;28;20243;-87
2023/07/08 12:04:08;;;;;;;23.70;22.20;;;29.70;40.50;;;;;;5052109;28;20199;-87
2023/07/08 12:06:34;;;;;;;22.77;21.17;;;29.60;42.10;;;;;;5053192;28;20192;-86
2023/07/08 12:09:14;;;;;;;24.05;22.17;;;29.70;45.10;;;;;;5051912;28;20175;-87
2023/07/08 12:11:43;;;;;;;26.75;25.00;;;29.70;44.00;;;;;;5051915;28;20635;-87
2023/07/08 12:14:09;;;;;;;24.33;22.27;;;29.70;43.80;;;;;;5051797;28;20202;-87
2023/07/08 12:16:35;;;;;;;18.77;17.38;;;29.60;43.00;;;;;;5053443;28;20183;-87
2023/07/08 12:19:04;;;;;;;17.35;16.25;;;29.60;44.70;;;;;;5052516;28;20183;-87
2023/07/08 12:21:33;;;;;;;19.08;17.73;;;29.70;42.10;;;;;;5052945;28;20208;-86
2023/07/08 12:24:04;;;;;;;20.13;18.65;;;29.50;39.70;;;;;;5051851;28;20214;-87
2023/07/08 12:26:29;;;;;;;17.85;16.27;;;29.60;43.20;;;;;;5052128;28;20618;-87
2023/07/08 12:28:56;;;;;;;18.75;17.52;;;29.70;39.90;;;;;;5051931;28;20172;-87
2023/07/08 12:31:23;;;;;;;18.80;17.38;;;29.70;42.70;;;;;;5051751;28;20636;-84
2023/07/08 12:33:50;;;;;;;19.17;17.83;;;29.70;42.30;;;;;;5052830;28;20239;-85
2023/07/08 12:36:25;;;;;;;19.38;17.95;;;29.60;41.30;;;;;;5053283;28;20167;-87
2023/07/08 12:38:52;;;;;;;18.17;16.77;;;29.60;39.30;;;;;;5052968;28;20148;-86